Flight Track Log - Related Links

Times and Time Zones

All times are in EDT time to prevent confusion due to time zone crossing. See the UAL6057 flight status page for this flight to view local times or setup timezone preferences in your user account.

Time Position Orientation Groundspeed Altitude Reporting Facility
EDT Latitude Longitude Course Direction KTS MPH feet Rate Location/Type
Sat 07:34:51 PM 39.9000 -104.7167 201° Southwest 187 215 6,800  Level Denver TRACON
Sat 07:35:22 PM 39.9194 -104.7425 314° West 196 226 7,900 1,826 Climbing Denver Center
Sat 07:36:23 PM 39.9381 -104.8247 286° West 239 275 9,600 1,902 Climbing Denver Center
Sat 07:37:25 PM 39.8833 -104.8839 220° Southwest 265 305 11,800 2,390 Climbing Denver Center
Sat 07:38:26 PM 39.8111 -104.9331 208° Southwest 273 314 14,500 2,016 Climbing Denver Center
Sat 07:39:27 PM 39.7414 -104.9747 205° Southwest 278 320 15,900 1,122 Climbing Denver Center
Sat 07:40:00 PM 39.4924 -104.4955 201° Southwest  Level FlightAware Approximate
Sat 07:40:29 PM 39.6489 -105.0344 206° Southwest 339 390 16,800  Level Denver Center
Sat 07:41:30 PM 39.5528 -105.0736 197° South 376 433 18,200 1,220 Climbing Denver Center
Sat 07:42:32 PM 39.4497 -105.0239 160° South 398 458 19,300 1,659 Climbing Denver Center
Sat 07:43:33 PM 39.3453 -104.9458 150° Southeast 407 468 21,600 1,721 Climbing Denver Center
Sat 07:44:34 PM 39.2867 -104.8250 122° Southeast 406 467 22,800 1,415 Climbing Denver Center
Sat 07:45:36 PM 39.2306 -104.6950 119° Southeast 415 478 24,500 1,951 Climbing Denver Center
Sat 07:46:37 PM 39.1756 -104.5611 118° Southeast 397 457 26,800 1,902 Climbing Denver Center
Sat 07:47:39 PM 39.1161 -104.4606 127° Southeast 389 448 28,400 1,659 Climbing Denver Center
Sat 07:48:40 PM 39.0036 -104.4211 165° South 375 432 30,200 1,279 Climbing Denver Center
Sat 07:49:41 PM 38.9019 -104.3947 169° South 386 444 31,000 390 Climbing Denver Center
Sat 07:50:43 PM 38.7939 -104.3633 167° South 406 467 31,000  Level Denver Center
Sat 07:51:44 PM 38.6586 -104.3189 166° South 441 507 31,000 195 Level Denver Center
Sat 07:52:46 PM 38.5767 -104.1997 131° Southeast 460 529 31,400 488 Climbing Denver Center
Sat 07:53:47 PM 38.5433 -104.0253 104° East 453 521 32,000 590 Climbing Denver Center
Sat 07:54:48 PM 38.5161 -103.8719 103° East 459 528 32,600 488 Climbing Denver Center
Sat 07:55:50 PM 38.4892 -103.7194 103° East 457 526 33,000 195 Climbing Denver Center
Sat 07:56:51 PM 38.4572 -103.5411 103° East 460 529 33,000  Level Denver Center
Sat 07:57:52 PM 38.4381 -103.3867 99° East 453 521 33,000  Level Denver Center
Sat 07:58:54 PM 38.4275 -103.2358 95° East 448 516 33,000  Level Denver Center
Sat 07:59:55 PM 38.4139 -103.0586 96° East 448 516 33,000  Level Denver Center
Sat 08:00:56 PM 38.4025 -102.9075 95° East 448 516 33,000  Level Denver Center
Sat 08:01:58 PM 38.3886 -102.7322 96° East 447 514 33,000  Level Denver Center
Sat 08:02:59 PM 38.3756 -102.5806 96° East 449 517 33,000  Level Denver Center
Sat 08:04:00 PM 38.3628 -102.4269 96° East 455 524 33,000  Level Denver Center
Sat 08:05:02 PM 38.3469 -102.2450 96° East 462 532 33,000  Level Denver Center
Sat 08:06:03 PM 38.3336 -102.0919 96° East 457 526 33,000  Level Denver Center
Sat 08:07:04 PM 38.3203 -101.9367 96° East 459 528 33,000  Level Denver Center
Sat 08:08:05 PM 38.3042 -101.7547 96° East 462 532 33,000  Level Denver Center
Sat 08:09:07 PM 38.2903 -101.6000 96° East 460 529 33,000  Level Denver Center
Sat 08:10:08 PM 38.2736 -101.4167 97° East 466 536 33,000  Level Denver Center
Sat 08:11:09 PM 38.2597 -101.2600 96° East 465 535 33,000  Level Denver Center
Sat 08:12:11 PM 38.2442 -101.1047 97° East 462 532 33,000  Level Denver Center
Sat 08:13:12 PM 38.2269 -100.9222 97° East 462 532 33,000  Level Denver Center
Sat 08:14:13 PM 38.2119 -100.7644 97° East 465 535 33,000  Level Denver Center
Sat 08:15:26 PM 38.1961 -100.6075 97° East 466 536 33,000  Level Denver Center
Sat 08:15:46 PM 38.1858 -100.5011 97° East 466 536 33,000  Level Kansas City Center
Sat 08:16:47 PM 38.1703 -100.3447 97° East 466 536 33,000  Level Kansas City Center
Sat 08:17:48 PM 38.1539 -100.1894 98° East 464 534 33,000  Level Kansas City Center
Sat 08:18:49 PM 38.1344 -100.0061 98° East 466 536 33,000  Level Kansas City Center
Sat 08:19:50 PM 38.1172 -99.8492 98° East 467 537 33,000  Level Kansas City Center
Sat 08:20:52 PM 38.1011 -99.6939 97° East 465 535 33,000  Level Kansas City Center
Sat 08:21:53 PM 38.0806 -99.5103 98° East 468 539 33,000  Level Kansas City Center
Sat 08:22:54 PM 38.0650 -99.3658 98° East 471 542 33,000  Level Kansas City Center
Sat 08:23:55 PM 38.0458 -99.2017 98° East 471 542 33,000  Level Kansas City Center
Sat 08:24:56 PM 38.0247 -99.0056 98° East 468 539 33,000  Level Kansas City Center
Sat 08:25:58 PM 38.0056 -98.8422 98° East 469 540 33,000  Level Kansas City Center
Sat 08:26:59 PM 37.9881 -98.6792 98° East 468 539 33,000  Level Kansas City Center
Sat 08:28:00 PM 37.9678 -98.5158 99° East 470 541 33,000  Level Kansas City Center
Sat 08:29:01 PM 37.9492 -98.3522 98° East 471 542 33,000  Level Kansas City Center
Sat 08:30:02 PM 37.9303 -98.1894 98° East 468 539 33,000  Level Kansas City Center
Sat 08:31:04 PM 37.9103 -98.0367 99° East 463 533 33,000  Level Kansas City Center
Sat 08:32:05 PM 37.8903 -97.8744 99° East 463 533 33,000  Level Kansas City Center
Sat 08:33:06 PM 37.8644 -97.6725 99° East 474 545 33,000  Level Kansas City Center
Sat 08:34:07 PM 37.8439 -97.5092 99° East 471 542 33,000  Level Kansas City Center
Sat 08:35:08 PM 37.8258 -97.3553 98° East 473 544 33,000  Level Kansas City Center
Sat 08:36:09 PM 37.8039 -97.1906 100° East 474 545 33,000  Level Kansas City Center
Sat 08:37:11 PM 37.7828 -97.0272 99° East 473 544 33,000  Level Kansas City Center
Sat 08:38:12 PM 37.7606 -96.8631 100° East 474 545 33,000 -49 Level Kansas City Center
Sat 08:39:13 PM 37.7392 -96.6989 99° East 475 547 32,900 -787 Descending Kansas City Center
Sat 08:40:14 PM 37.7175 -96.5344 99° East 475 547 31,400 -1,463 Descending Kansas City Center
Sat 08:41:16 PM 37.6953 -96.3708 100° East 473 544 29,900 -1,902 Descending Kansas City Center
Sat 08:42:17 PM 37.6672 -96.1725 100° East 478 550 27,500 -2,262 Descending Kansas City Center
Sat 08:43:18 PM 37.6433 -96.0025 100° East 492 566 25,300 -2,164 Descending Kansas City Center
Sat 08:44:19 PM 37.6197 -95.8328 100° East 493 567 23,100 -2,164 Descending Kansas City Center
Sat 08:45:20 PM 37.5967 -95.6719 100° East 480 552 20,900 -2,195 Descending Kansas City Center
Sat 08:46:22 PM 37.5750 -95.5175 100° East 460 529 18,600 -2,098 Descending Kansas City Center
Sat 08:47:23 PM 37.5528 -95.3694 101° East 442 509 16,600 -1,770 Descending Kansas City Center
Sat 08:48:24 PM 37.5308 -95.2239 101° East 430 495 15,000 -1,279 Descending Kansas City Center
Sat 08:49:25 PM 37.5100 -95.0806 100° East 422 486 14,000 -1,033 Descending Kansas City Center
Sat 08:50:26 PM 37.4892 -94.9428 101° East 409 471 12,900 -1,024 Descending Kansas City Center
Sat 08:51:28 PM 37.4686 -94.8069 101° East 400 460 11,900 -927 Descending Kansas City Center
Sat 08:52:29 PM 37.4508 -94.6883 101° East 359 413 11,000 -787 Descending Kansas City Center
Sat 08:53:30 PM 37.4306 -94.5567 101° East 325 374 10,300 -590 Descending Kansas City Center
Sat 08:54:31 PM 37.4053 -94.4561 108° East 309 356 9,800 -541 Descending Kansas City Center
Sat 08:55:32 PM 37.3706 -94.3550 113° Southeast 310 357 9,200 -492 Descending Kansas City Center
Sat 08:56:33 PM 37.3378 -94.2536 112° Southeast 312 359 8,800 -443 Descending Kansas City Center
Sat 08:57:34 PM 37.3039 -94.1544 113° Southeast 310 357 8,300 -443 Descending Kansas City Center
Sat 08:58:35 PM 37.2781 -94.0686 111° Southeast 306 352 7,900 -393 Descending Kansas City Center
Sat 08:59:36 PM 37.2489 -93.9506 107° East 299 344 7,500 -390 Descending Kansas City Center
Sat 09:00:38 PM 37.2283 -93.8531 105° East 294 338 7,100 -439 Descending Kansas City Center
Sat 09:01:39 PM 37.2161 -93.7544 99° East 290 334 6,600 -541 Descending Kansas City Center
Sat 09:02:40 PM 37.2039 -93.6575 99° East 285 328 6,000 -585 Descending Kansas City Center
Sat 09:03:42 PM 37.1911 -93.5619 100° East 281 323 5,400 -683 Descending Kansas City Center
Sat 09:04:43 PM 37.1775 -93.4775 101° East 263 303 4,600 -1,082 Descending Kansas City Center
Sat 09:05:44 PM 37.1781 -93.4206 89° East 214 246 3,200 -1,377 Descending Kansas City Center
Sat 09:07:00 PM 37.2333 -93.3833 81° East  Level FlightAware Approximate
Sat 09:14:00 PM 37.2457 -93.3886 81° East  Level Estimated
Sat 09:15:00 PM 37.2457 -93.3886 81° East  Level Estimated

Login

Don't have an account? Register now (free) for customized features, flight alerts, and more!